createdAt,value
2019-02-06T00:00:33.738Z,15.73
2019-02-06T00:03:00.047Z,15.72
2019-02-06T00:05:26.362Z,15.71
2019-02-06T00:07:52.666Z,15.71
2019-02-06T00:10:18.995Z,15.69
2019-02-06T00:12:45.308Z,15.67
2019-02-06T00:15:11.601Z,15.63
2019-02-06T00:17:39.372Z,15.56
2019-02-06T00:20:04.201Z,15.58
2019-02-06T00:22:30.544Z,15.58
2019-02-06T00:24:56.871Z,15.60
2019-02-06T00:27:23.180Z,15.62
2019-02-06T00:29:49.490Z,15.62
2019-02-06T00:32:15.943Z,15.60
2019-02-06T00:34:42.252Z,15.58
2019-02-06T00:37:08.696Z,15.55
2019-02-06T00:39:34.927Z,15.55
2019-02-06T00:42:01.242Z,15.52
2019-02-06T00:44:27.548Z,15.52
2019-02-06T00:46:53.864Z,15.52
2019-02-06T00:49:20.174Z,15.49
2019-02-06T00:51:46.487Z,15.52
2019-02-06T00:54:12.790Z,15.51
2019-02-06T00:56:39.101Z,15.50
2019-02-06T00:59:05.404Z,15.49
2019-02-06T01:01:31.711Z,15.46
2019-02-06T01:03:58.024Z,15.44
2019-02-06T01:06:24.329Z,15.45
2019-02-06T01:08:50.649Z,15.46
2019-02-06T01:11:16.952Z,15.43
2019-02-06T01:13:43.260Z,15.43
2019-02-06T01:16:09.573Z,15.42
2019-02-06T01:18:35.885Z,15.37
2019-02-06T01:21:02.192Z,15.32
2019-02-06T01:23:28.503Z,15.29
2019-02-06T01:25:54.818Z,15.30
2019-02-06T01:28:21.136Z,15.30
2019-02-06T01:30:47.448Z,15.31
2019-02-06T01:33:13.761Z,15.31
2019-02-06T01:35:49.610Z,15.32
2019-02-06T01:38:06.378Z,15.29
2019-02-06T01:40:32.691Z,15.29
2019-02-06T01:42:58.995Z,15.27
2019-02-06T01:45:25.297Z,15.24
2019-02-06T01:47:51.608Z,15.23
2019-02-06T01:50:17.920Z,15.22
2019-02-06T01:52:44.227Z,15.21
2019-02-06T01:55:10.539Z,15.20
2019-02-06T01:57:36.846Z,15.16
2019-02-06T02:00:03.152Z,15.18
2019-02-06T02:02:29.463Z,15.16
2019-02-06T02:04:55.771Z,15.18
2019-02-06T02:07:22.073Z,15.17
2019-02-06T02:09:48.388Z,15.15
2019-02-06T02:12:14.696Z,15.14
2019-02-06T02:14:41.019Z,15.12
2019-02-06T02:17:07.324Z,15.10
2019-02-06T02:19:33.628Z,15.09
2019-02-06T02:21:59.935Z,15.07
2019-02-06T02:24:26.251Z,14.99
2019-02-06T02:26:52.561Z,14.92
2019-02-06T02:29:18.880Z,14.92
2019-02-06T02:31:45.181Z,14.93
2019-02-06T02:34:11.494Z,14.95
2019-02-06T02:36:37.811Z,14.96
2019-02-06T02:39:04.117Z,14.98
2019-02-06T02:41:30.424Z,14.99
2019-02-06T02:43:56.774Z,14.96
2019-02-06T02:46:23.047Z,14.96
2019-02-06T02:48:49.360Z,14.96
2019-02-06T02:51:15.670Z,14.96
2019-02-06T02:53:41.986Z,14.94
2019-02-06T02:56:08.293Z,14.95
2019-02-06T02:58:34.609Z,14.95
2019-02-06T03:01:00.922Z,14.93
2019-02-06T03:03:27.227Z,14.93
2019-02-06T03:06:08.778Z,14.91
2019-02-06T03:08:35.078Z,14.92
2019-02-06T03:11:01.373Z,14.90
2019-02-06T03:13:27.678Z,14.91
2019-02-06T03:15:53.983Z,14.89
2019-02-06T03:18:20.325Z,14.87
2019-02-06T03:20:46.628Z,14.85
2019-02-06T03:23:12.965Z,14.86
2019-02-06T03:25:39.290Z,14.86
2019-02-06T03:28:05.600Z,14.83
2019-02-06T03:30:31.902Z,14.76
2019-02-06T03:32:58.196Z,14.72
2019-02-06T03:35:24.488Z,14.71
2019-02-06T03:37:50.802Z,14.72
2019-02-06T03:40:17.126Z,14.73
2019-02-06T03:42:43.418Z,14.73
2019-02-06T03:45:09.755Z,14.75
2019-02-06T03:47:36.055Z,14.75
2019-02-06T03:50:02.354Z,14.72
2019-02-06T03:52:28.711Z,14.72
2019-02-06T03:54:55.043Z,14.72
2019-02-06T03:57:21.317Z,14.67
2019-02-06T03:59:47.656Z,14.65
2019-02-06T04:02:13.953Z,14.65
2019-02-06T04:04:40.246Z,14.65
2019-02-06T04:07:06.539Z,14.64
2019-02-06T04:09:32.832Z,14.62
2019-02-06T04:11:59.133Z,14.60
2019-02-06T04:14:25.459Z,14.59
2019-02-06T04:16:51.745Z,14.61
2019-02-06T04:19:18.062Z,14.59
2019-02-06T04:21:44.375Z,14.61
2019-02-06T04:24:10.680Z,14.57
2019-02-06T04:26:37.006Z,14.56
2019-02-06T04:29:03.296Z,14.55
2019-02-06T04:31:29.609Z,14.51
2019-02-06T04:33:55.898Z,14.45
2019-02-06T04:36:22.232Z,14.37
2019-02-06T04:38:48.542Z,14.37
2019-02-06T04:41:14.877Z,14.37
2019-02-06T04:43:41.203Z,14.39
2019-02-06T04:46:07.506Z,14.39
2019-02-06T04:48:33.883Z,14.41
2019-02-06T04:51:00.234Z,14.40
2019-02-06T04:53:26.564Z,14.40
2019-02-06T04:55:52.877Z,14.41
2019-02-06T04:58:19.171Z,14.40
2019-02-06T05:00:45.549Z,14.40
2019-02-06T05:03:11.822Z,14.36
2019-02-06T05:05:38.135Z,14.36
2019-02-06T05:08:04.499Z,14.37
2019-02-06T05:10:30.874Z,14.37
2019-02-06T05:12:57.186Z,14.32
2019-02-06T05:15:23.499Z,14.30
2019-02-06T05:17:49.864Z,14.30
2019-02-06T05:20:16.187Z,14.32
2019-02-06T05:22:42.492Z,14.33
2019-02-06T05:25:08.802Z,14.33
2019-02-06T05:27:35.123Z,14.32
2019-02-06T05:30:01.435Z,14.30
2019-02-06T05:32:27.746Z,14.26
2019-02-06T05:34:54.089Z,14.27
2019-02-06T05:37:31.772Z,14.25
2019-02-06T05:39:46.732Z,14.15
2019-02-06T05:42:13.026Z,14.09
2019-02-06T05:44:39.367Z,14.11
2019-02-06T05:47:05.666Z,14.14
2019-02-06T05:49:31.974Z,14.16
2019-02-06T05:51:58.290Z,14.19
2019-02-06T05:54:24.607Z,14.21
2019-02-06T05:56:50.918Z,14.19
2019-02-06T05:59:17.232Z,14.19
2019-02-06T06:01:43.611Z,14.18
2019-02-06T06:04:09.913Z,14.17
2019-02-06T06:06:36.221Z,14.17
2019-02-06T06:09:02.534Z,14.19
2019-02-06T06:11:28.845Z,14.19
2019-02-06T06:13:55.153Z,14.18
2019-02-06T06:16:21.455Z,14.19
2019-02-06T06:18:47.793Z,14.08
2019-02-06T06:21:14.104Z,14.18
2019-02-06T06:23:40.450Z,14.19
2019-02-06T06:26:06.786Z,14.20
2019-02-06T06:28:33.099Z,14.19
2019-02-06T06:30:59.429Z,14.21
2019-02-06T06:33:25.708Z,14.21
2019-02-06T06:35:52.024Z,14.22
2019-02-06T06:38:18.325Z,14.23
2019-02-06T06:40:44.720Z,14.21
2019-02-06T06:43:11.033Z,14.20
2019-02-06T06:45:37.314Z,14.14
2019-02-06T06:48:03.654Z,14.11
2019-02-06T06:50:29.992Z,14.15
2019-02-06T06:52:56.301Z,14.21
2019-02-06T06:55:22.623Z,14.24
2019-02-06T06:57:48.924Z,14.26
2019-02-06T07:00:15.284Z,14.25
2019-02-06T07:02:41.631Z,14.30
2019-02-06T07:05:07.978Z,14.30
2019-02-06T07:07:34.317Z,14.32
2019-02-06T07:10:00.638Z,14.34
2019-02-06T07:12:26.959Z,14.36
2019-02-06T07:14:53.253Z,14.38
2019-02-06T07:17:19.547Z,14.38
2019-02-06T07:19:45.842Z,14.37
2019-02-06T07:22:12.184Z,14.38
2019-02-06T07:24:38.496Z,14.38
2019-02-06T07:27:04.812Z,14.39
2019-02-06T07:29:31.195Z,14.40
2019-02-06T07:31:57.477Z,14.41
2019-02-06T07:34:23.782Z,14.42
2019-02-06T07:36:50.208Z,14.42
2019-02-06T07:39:16.511Z,14.40
2019-02-06T07:41:43.128Z,14.43
2019-02-06T07:44:09.439Z,14.44
2019-02-06T07:46:35.736Z,14.44
2019-02-06T07:49:02.071Z,14.35
2019-02-06T07:51:28.387Z,14.26
2019-02-06T07:53:54.776Z,14.28
2019-02-06T07:56:21.068Z,14.31
2019-02-06T07:58:47.385Z,14.38
2019-02-06T08:01:13.682Z,14.39
2019-02-06T08:03:39.998Z,14.42
2019-02-06T08:06:06.290Z,14.42
2019-02-06T08:08:36.132Z,14.43
2019-02-06T08:10:58.913Z,14.44
2019-02-06T08:13:25.218Z,14.47
2019-02-06T08:15:51.578Z,14.48
2019-02-06T08:18:17.847Z,14.49
2019-02-06T08:20:44.237Z,14.52
2019-02-06T08:23:10.554Z,14.55
2019-02-06T08:25:36.881Z,14.57
2019-02-06T08:28:03.299Z,14.48
2019-02-06T08:30:29.592Z,14.62
2019-02-06T08:32:55.900Z,14.61
2019-02-06T08:35:22.207Z,14.63
2019-02-06T08:37:48.491Z,14.62
2019-02-06T08:40:14.795Z,14.61
2019-02-06T08:42:41.117Z,14.60
2019-02-06T08:45:07.416Z,14.63
2019-02-06T08:47:33.722Z,14.64
2019-02-06T08:50:00.025Z,14.66
2019-02-06T08:52:26.335Z,14.64
2019-02-06T08:54:52.658Z,14.57
2019-02-06T08:57:18.970Z,14.55
2019-02-06T08:59:45.284Z,14.58
2019-02-06T09:02:11.589Z,14.67
2019-02-06T09:04:37.882Z,14.72
2019-02-06T09:07:04.171Z,14.80
2019-02-06T09:09:30.495Z,14.82
2019-02-06T09:11:56.799Z,14.88
2019-02-06T09:14:23.097Z,14.91
2019-02-06T09:16:49.414Z,14.96
2019-02-06T09:19:15.707Z,14.99
2019-02-06T09:21:42.003Z,15.01
2019-02-06T09:24:08.310Z,15.02
2019-02-06T09:26:36.245Z,15.03
2019-02-06T09:29:00.917Z,15.03
2019-02-06T09:31:27.244Z,15.03
2019-02-06T09:33:53.548Z,15.04
2019-02-06T09:36:19.862Z,15.04
2019-02-06T09:38:46.193Z,15.04
2019-02-06T09:41:12.503Z,15.05
2019-02-06T09:43:38.817Z,15.06
2019-02-06T09:46:05.144Z,15.04
2019-02-06T09:48:31.451Z,15.03
2019-02-06T09:50:57.759Z,15.02
2019-02-06T09:53:24.151Z,15.01
2019-02-06T09:55:53.171Z,15.02
2019-02-06T09:58:16.732Z,14.96
2019-02-06T10:00:43.033Z,14.86
2019-02-06T10:03:09.329Z,14.86
2019-02-06T10:05:35.650Z,14.90
2019-02-06T10:08:01.929Z,14.95
2019-02-06T10:10:28.235Z,14.98
2019-02-06T10:12:54.531Z,14.98
2019-02-06T10:15:20.829Z,15.01
2019-02-06T10:17:47.142Z,15.01
2019-02-06T10:20:13.452Z,15.01
2019-02-06T10:22:39.802Z,15.01
2019-02-06T10:25:06.098Z,14.97
2019-02-06T10:27:32.397Z,14.98
2019-02-06T10:29:58.719Z,14.98
2019-02-06T10:32:25.039Z,14.98
2019-02-06T10:34:51.326Z,14.98
2019-02-06T10:37:17.626Z,14.98
2019-02-06T10:39:43.964Z,14.99
2019-02-06T10:42:10.293Z,14.97
2019-02-06T10:44:36.603Z,14.98
2019-02-06T10:47:02.918Z,14.98
2019-02-06T10:49:29.236Z,15.00
2019-02-06T10:51:55.536Z,15.02
2019-02-06T10:54:21.838Z,15.00
2019-02-06T10:56:48.158Z,15.03
2019-02-06T10:59:14.462Z,15.02
2019-02-06T11:01:40.800Z,15.00
2019-02-06T11:04:07.102Z,14.89
2019-02-06T11:06:33.418Z,14.85
2019-02-06T11:08:59.803Z,14.86
2019-02-06T11:11:26.112Z,14.90
2019-02-06T11:13:52.616Z,14.94
2019-02-06T11:16:21.072Z,14.97
2019-02-06T11:18:45.318Z,14.97
2019-02-06T11:21:11.779Z,14.98
2019-02-06T11:23:38.102Z,14.98
2019-02-06T11:26:04.394Z,14.97
2019-02-06T11:28:30.695Z,14.98
2019-02-06T11:30:57.330Z,14.98
2019-02-06T11:33:23.328Z,14.98
2019-02-06T11:35:49.636Z,14.96
2019-02-06T11:38:15.956Z,14.96
2019-02-06T11:40:42.269Z,14.95
2019-02-06T11:43:08.576Z,14.96
2019-02-06T11:45:34.888Z,14.96
2019-02-06T11:48:01.200Z,14.95
2019-02-06T11:50:27.513Z,14.93
2019-02-06T11:52:53.815Z,14.92
2019-02-06T11:55:20.139Z,14.89
2019-02-06T11:57:46.445Z,14.88
2019-02-06T12:00:12.775Z,14.87
2019-02-06T12:02:39.086Z,14.87
2019-02-06T12:05:05.393Z,14.86
2019-02-06T12:07:31.765Z,14.82
2019-02-06T12:10:09.034Z,14.76
2019-02-06T12:12:24.380Z,14.69
2019-02-06T12:14:50.682Z,14.70
2019-02-06T12:17:16.995Z,14.75
2019-02-06T12:19:43.308Z,14.78
2019-02-06T12:22:09.621Z,14.79
2019-02-06T12:24:35.924Z,14.79
2019-02-06T12:27:02.242Z,14.80
2019-02-06T12:29:28.572Z,14.79
2019-02-06T12:31:54.877Z,14.79
2019-02-06T12:34:23.494Z,14.78
2019-02-06T12:36:49.794Z,14.78
2019-02-06T12:39:16.109Z,14.77
2019-02-06T12:41:42.451Z,14.77
2019-02-06T12:44:08.843Z,14.74
2019-02-06T12:46:35.155Z,14.77
2019-02-06T12:49:01.490Z,14.75
2019-02-06T12:51:27.796Z,14.72
2019-02-06T12:53:54.101Z,14.75
2019-02-06T12:58:46.489Z,14.78
2019-02-06T13:01:12.797Z,14.79
2019-02-06T13:03:39.111Z,14.78
2019-02-06T13:06:05.429Z,14.76
2019-02-06T13:08:31.739Z,14.76
2019-02-06T13:10:58.053Z,14.77
2019-02-06T13:13:24.371Z,14.73
2019-02-06T13:15:50.687Z,14.66
2019-02-06T13:18:17.003Z,14.61
2019-02-06T13:20:43.307Z,14.62
2019-02-06T13:23:09.635Z,14.65
2019-02-06T13:25:35.941Z,14.66
2019-02-06T13:28:02.250Z,14.66
2019-02-06T13:30:28.571Z,14.68
2019-02-06T13:32:54.880Z,14.69
2019-02-06T13:35:21.183Z,14.68
2019-02-06T13:37:48.495Z,14.69
2019-02-06T13:40:14.808Z,14.66
2019-02-06T13:42:41.125Z,14.64
2019-02-06T13:45:07.441Z,14.64
2019-02-06T13:47:33.745Z,14.64
2019-02-06T13:50:00.187Z,14.63
2019-02-06T13:52:26.387Z,14.61
2019-02-06T13:54:52.693Z,14.60
2019-02-06T13:57:19.016Z,14.59
2019-02-06T13:59:45.325Z,14.57
2019-02-06T14:02:11.632Z,14.50
2019-02-06T14:04:37.937Z,14.56
2019-02-06T14:07:04.264Z,14.56
2019-02-06T14:09:30.564Z,14.55
2019-02-06T14:11:56.877Z,14.53
2019-02-06T14:14:23.182Z,14.53
2019-02-06T14:16:49.549Z,14.54
2019-02-06T14:19:15.866Z,14.46
2019-02-06T14:21:42.174Z,14.40
2019-02-06T14:24:08.544Z,14.33
2019-02-06T14:26:34.849Z,14.29
2019-02-06T14:29:01.255Z,14.33
2019-02-06T14:31:31.350Z,14.34
2019-02-06T14:33:56.442Z,14.34
2019-02-06T14:36:22.768Z,14.36
2019-02-06T14:38:49.139Z,14.36
2019-02-06T14:41:15.561Z,14.33
2019-02-06T14:43:41.811Z,14.30
2019-02-06T14:46:08.116Z,14.31
2019-02-06T14:48:34.427Z,14.30
2019-02-06T14:51:00.731Z,14.31
2019-02-06T14:53:27.050Z,14.29
2019-02-06T14:55:53.415Z,14.26
2019-02-06T14:58:19.718Z,14.23
2019-02-06T15:00:46.025Z,14.25
2019-02-06T15:03:12.333Z,14.21
2019-02-06T15:05:38.660Z,14.19
2019-02-06T15:08:04.975Z,14.18
2019-02-06T15:10:31.285Z,14.16
2019-02-06T15:12:57.598Z,14.15
2019-02-06T15:15:23.902Z,14.14
2019-02-06T15:17:50.215Z,14.12
2019-02-06T15:20:16.534Z,14.10
2019-02-06T15:22:42.840Z,14.08
2019-02-06T15:25:09.159Z,14.05
2019-02-06T15:27:35.471Z,14.00
2019-02-06T15:30:01.785Z,13.91
2019-02-06T15:32:28.094Z,13.87
2019-02-06T15:34:54.405Z,13.89
2019-02-06T15:37:20.718Z,13.91
2019-02-06T15:39:47.037Z,13.88
2019-02-06T15:42:13.353Z,13.88
2019-02-06T15:44:39.671Z,13.88
2019-02-06T15:47:05.972Z,13.88
2019-02-06T15:49:32.292Z,13.88
2019-02-06T15:51:58.601Z,13.86
2019-02-06T15:54:24.942Z,13.86
2019-02-06T15:56:51.225Z,13.84
2019-02-06T15:59:17.553Z,13.82
2019-02-06T16:01:43.881Z,13.80
2019-02-06T16:04:10.193Z,13.78
2019-02-06T16:06:36.510Z,13.80
2019-02-06T16:09:02.817Z,13.77
2019-02-06T16:11:29.124Z,13.73
2019-02-06T16:13:55.453Z,13.73
2019-02-06T16:16:21.761Z,13.72
2019-02-06T16:18:48.077Z,13.71
2019-02-06T16:21:14.384Z,13.68
2019-02-06T16:23:40.693Z,13.67
2019-02-06T16:26:07.022Z,13.66
2019-02-06T16:28:33.397Z,13.66
2019-02-06T16:30:59.645Z,13.63
2019-02-06T16:33:25.954Z,13.58
2019-02-06T16:35:52.264Z,13.53
2019-02-06T16:38:18.590Z,13.47
2019-02-06T16:40:44.912Z,13.46
2019-02-06T16:43:11.220Z,13.48
2019-02-06T16:45:37.528Z,13.48
2019-02-06T16:48:04.152Z,13.49
2019-02-06T16:50:30.828Z,13.51
2019-02-06T16:52:57.143Z,13.52
2019-02-06T16:55:23.713Z,13.54
2019-02-06T16:57:50.039Z,13.52
2019-02-06T17:00:16.354Z,13.52
2019-02-06T17:02:42.824Z,13.53
2019-02-06T17:05:09.145Z,13.52
2019-02-06T17:07:35.456Z,13.50
2019-02-06T17:10:01.768Z,13.50
2019-02-06T17:12:28.077Z,13.51
2019-02-06T17:14:54.396Z,13.51
2019-02-06T17:17:20.703Z,13.47
2019-02-06T17:19:47.013Z,13.48
2019-02-06T17:22:13.321Z,13.49
2019-02-06T17:24:39.631Z,13.50
2019-02-06T17:27:05.943Z,13.46
2019-02-06T17:29:32.249Z,13.48
2019-02-06T17:31:58.566Z,13.48
2019-02-06T17:34:24.905Z,13.48
2019-02-06T17:36:51.201Z,13.49
2019-02-06T17:39:24.290Z,13.47
2019-02-06T17:41:43.826Z,13.43
2019-02-06T17:44:12.651Z,13.39
2019-02-06T17:46:36.449Z,13.34
2019-02-06T17:49:02.764Z,13.37
2019-02-06T17:51:29.120Z,13.46
2019-02-06T17:53:55.462Z,13.49
2019-02-06T17:56:21.746Z,13.51
2019-02-06T17:58:48.945Z,13.49
2019-02-06T18:01:15.258Z,13.47
2019-02-06T18:03:41.569Z,13.45
2019-02-06T18:06:08.024Z,13.46
2019-02-06T18:08:34.434Z,13.47
2019-02-06T18:11:00.718Z,13.47
2019-02-06T18:13:27.029Z,13.44
2019-02-06T18:15:53.464Z,13.44
2019-02-06T18:18:19.792Z,13.45
2019-02-06T18:20:46.096Z,13.43
2019-02-06T18:23:12.468Z,13.42
2019-02-06T18:25:38.792Z,13.42
2019-02-06T18:28:05.097Z,13.41
2019-02-06T18:30:31.434Z,13.40
2019-02-06T18:32:57.745Z,13.41
2019-02-06T18:35:24.056Z,13.41
2019-02-06T18:37:50.367Z,13.41
2019-02-06T18:40:16.692Z,13.40
2019-02-06T18:42:43.000Z,13.39
2019-02-06T18:45:09.305Z,13.38
2019-02-06T18:47:35.626Z,13.34
2019-02-06T18:50:01.937Z,13.28
2019-02-06T18:52:28.253Z,13.22
2019-02-06T18:54:54.561Z,13.43
2019-02-06T18:57:20.873Z,13.75
2019-02-06T18:59:48.520Z,13.78
2019-02-06T19:02:13.516Z,13.72
2019-02-06T19:04:39.828Z,13.65
2019-02-06T19:07:06.193Z,13.63
2019-02-06T19:09:33.390Z,13.59
2019-02-06T19:11:59.719Z,13.57
2019-02-06T19:14:26.030Z,13.53
2019-02-06T19:16:52.346Z,13.50
2019-02-06T19:19:25.405Z,13.48
2019-02-06T19:21:45.144Z,13.48
2019-02-06T19:24:11.484Z,13.48
2019-02-06T19:26:37.809Z,13.47
2019-02-06T19:29:04.133Z,13.45
2019-02-06T19:31:30.872Z,13.43
2019-02-06T19:33:57.191Z,13.44
2019-02-06T19:36:23.513Z,13.43
2019-02-06T19:38:49.820Z,13.56
2019-02-06T19:41:16.139Z,14.11
2019-02-06T19:43:42.457Z,14.56
2019-02-06T19:46:08.773Z,14.70
2019-02-06T19:48:35.091Z,14.55
2019-02-06T19:51:01.403Z,14.33
2019-02-06T19:53:27.805Z,14.13
2019-02-06T19:55:54.043Z,13.91
2019-02-06T19:58:20.362Z,13.75
2019-02-06T20:00:49.692Z,13.73
2019-02-06T20:03:16.086Z,13.91
2019-02-06T20:05:42.366Z,14.24
2019-02-06T20:08:08.693Z,14.10
2019-02-06T20:10:35.009Z,13.89
2019-02-06T20:13:10.520Z,13.70
2019-02-06T20:15:27.675Z,13.66
2019-02-06T20:17:53.991Z,13.80
2019-02-06T20:20:20.374Z,13.69
2019-02-06T20:22:46.681Z,13.56
2019-02-06T20:25:12.994Z,13.44
2019-02-06T20:27:39.319Z,13.45
2019-02-06T20:30:05.635Z,13.47
2019-02-06T20:32:31.942Z,13.43
2019-02-06T20:34:58.255Z,13.35
2019-02-06T20:37:24.572Z,13.28
2019-02-06T20:39:50.891Z,13.22
2019-02-06T20:42:17.204Z,13.17
2019-02-06T20:44:43.528Z,13.14
2019-02-06T20:47:09.846Z,13.10
2019-02-06T20:49:36.163Z,13.07
2019-02-06T20:52:02.476Z,13.05
2019-02-06T20:54:28.821Z,13.01
2019-02-06T20:56:55.196Z,12.97
2019-02-06T20:59:21.550Z,12.95
2019-02-06T21:01:47.864Z,12.93
2019-02-06T21:04:14.171Z,12.90
2019-02-06T21:06:40.498Z,12.87
2019-02-06T21:09:06.802Z,12.83
2019-02-06T21:11:33.352Z,12.81
2019-02-06T21:13:59.621Z,12.79
2019-02-06T21:16:25.930Z,12.77
2019-02-06T21:18:52.354Z,12.75
2019-02-06T21:21:18.696Z,12.74
2019-02-06T21:23:45.148Z,12.72
2019-02-06T21:26:11.348Z,12.69
2019-02-06T21:28:37.663Z,12.65
2019-02-06T21:31:03.992Z,12.65
2019-02-06T21:33:30.309Z,12.62
2019-02-06T21:35:56.617Z,12.60
2019-02-06T21:38:22.941Z,12.56
2019-02-06T21:40:49.248Z,12.52
2019-02-06T21:43:15.560Z,12.51
2019-02-06T21:45:41.865Z,12.50
2019-02-06T21:48:08.183Z,12.50
2019-02-06T21:50:34.534Z,12.48
2019-02-06T21:53:00.851Z,12.46
2019-02-06T21:55:27.159Z,12.44
2019-02-06T21:57:53.486Z,12.43
2019-02-06T22:00:19.798Z,12.41
2019-02-06T22:02:46.114Z,12.38
2019-02-06T22:05:14.334Z,12.35
2019-02-06T22:07:38.755Z,12.33
2019-02-06T22:10:05.064Z,12.29
2019-02-06T22:12:31.376Z,12.29
2019-02-06T22:14:57.687Z,12.27
2019-02-06T22:17:23.996Z,12.23
2019-02-06T22:19:50.315Z,12.23
2019-02-06T22:22:16.624Z,12.21
2019-02-06T22:24:42.944Z,12.19
2019-02-06T22:27:09.249Z,12.17
2019-02-06T22:29:35.567Z,12.18
2019-02-06T22:32:01.875Z,12.16
2019-02-06T22:34:28.186Z,12.13
2019-02-06T22:36:54.502Z,12.13
2019-02-06T22:39:20.819Z,12.13
2019-02-06T22:41:47.129Z,12.11
2019-02-06T22:44:13.449Z,12.09
2019-02-06T22:46:39.810Z,12.08
2019-02-06T22:49:06.120Z,12.06
2019-02-06T22:51:32.428Z,12.07
2019-02-06T22:53:58.739Z,12.06
2019-02-06T22:56:25.062Z,12.04
2019-02-06T22:58:51.407Z,12.03
2019-02-06T23:01:17.718Z,12.04
2019-02-06T23:03:44.034Z,12.01
2019-02-06T23:06:10.346Z,12.00
2019-02-06T23:08:36.659Z,11.99
2019-02-06T23:11:02.961Z,11.96
2019-02-06T23:13:29.278Z,11.97
2019-02-06T23:15:55.589Z,11.90
2019-02-06T23:18:21.902Z,11.94
2019-02-06T23:20:48.222Z,11.91
2019-02-06T23:23:14.530Z,11.87
2019-02-06T23:25:43.117Z,11.90
2019-02-06T23:28:07.146Z,11.88
2019-02-06T23:30:33.462Z,11.87
2019-02-06T23:32:59.816Z,11.88
2019-02-06T23:35:26.098Z,11.88
2019-02-06T23:37:52.435Z,11.86
2019-02-06T23:40:19.166Z,11.84
2019-02-06T23:42:45.479Z,11.84
2019-02-06T23:45:11.862Z,11.83
2019-02-06T23:47:38.119Z,11.82
2019-02-06T23:50:04.430Z,11.80
2019-02-06T23:52:30.752Z,11.77
2019-02-06T23:54:57.057Z,11.77
2019-02-06T23:57:23.420Z,11.76
2019-02-06T23:59:49.682Z,11.76
